Froid, Montana
Current Conditions -  °F | °C
As of 5:18 AM on Monday 24 Nov 2014 (Local Time) from KISN Reporting Station
Broken Clouds Broken Clouds  
Wind Chill:   Ceiling: 800
Heat Index:   Visibility: 8mi
Dew Point:   Wind: 0mph
Humidity: 88%   Direction: NA
Pressure: 29.88"   Gusts: NA
Location:  48.33°N, 104.5°W
Report Text: KISN 241218Z AUTO 00000KT 8SM BKN008 M16/M17 A2988 RMK AO2 T11561172
Loading
Personal Weather Stations






























Interactive Weather Map New forecast layout! Learn more

10-Day Weather Forecast

Advertisements
Track Severe Weather on mobile